sensor_id;sensor_type;location;lat;lon;timestamp;P1;durP1;ratioP1;P2;durP2;ratioP2
11988;SDS011;6054;50.966;7.094;2024-01-25T00:00:33;32.13;;;6.05;;
11988;SDS011;6054;50.966;7.094;2024-01-25T00:02:59;29.35;;;5.75;;
11988;SDS011;6054;50.966;7.094;2024-01-25T00:05:28;33.47;;;6.00;;
11988;SDS011;6054;50.966;7.094;2024-01-25T00:07:56;27.45;;;6.15;;
11988;SDS011;6054;50.966;7.094;2024-01-25T00:10:24;32.65;;;6.25;;
11988;SDS011;6054;50.966;7.094;2024-01-25T00:12:51;34.25;;;5.55;;
11988;SDS011;6054;50.966;7.094;2024-01-25T00:15:18;29.30;;;5.45;;
11988;SDS011;6054;50.966;7.094;2024-01-25T00:17:44;32.75;;;6.78;;
11988;SDS011;6054;50.966;7.094;2024-01-25T00:20:11;36.13;;;5.43;;
11988;SDS011;6054;50.966;7.094;2024-01-25T00:22:40;34.65;;;6.70;;
11988;SDS011;6054;50.966;7.094;2024-01-25T00:25:07;31.27;;;5.57;;
11988;SDS011;6054;50.966;7.094;2024-01-25T00:27:34;23.83;;;5.75;;
11988;SDS011;6054;50.966;7.094;2024-01-25T00:30:01;25.00;;;5.55;;
11988;SDS011;6054;50.966;7.094;2024-01-25T00:32:29;34.13;;;5.80;;
11988;SDS011;6054;50.966;7.094;2024-01-25T00:34:56;28.83;;;6.15;;
11988;SDS011;6054;50.966;7.094;2024-01-25T00:37:24;30.80;;;6.10;;
11988;SDS011;6054;50.966;7.094;2024-01-25T00:39:53;28.42;;;6.22;;
11988;SDS011;6054;50.966;7.094;2024-01-25T00:42:21;29.13;;;5.85;;
11988;SDS011;6054;50.966;7.094;2024-01-25T00:44:49;34.28;;;6.43;;
11988;SDS011;6054;50.966;7.094;2024-01-25T00:47:17;33.88;;;6.07;;
11988;SDS011;6054;50.966;7.094;2024-01-25T00:49:44;29.65;;;6.32;;
11988;SDS011;6054;50.966;7.094;2024-01-25T00:52:11;29.08;;;5.45;;
11988;SDS011;6054;50.966;7.094;2024-01-25T00:54:38;37.70;;;6.95;;
11988;SDS011;6054;50.966;7.094;2024-01-25T00:57:08;24.63;;;5.18;;
11988;SDS011;6054;50.966;7.094;2024-01-25T00:59:36;30.45;;;7.50;;
11988;SDS011;6054;50.966;7.094;2024-01-25T01:02:03;31.48;;;6.15;;
11988;SDS011;6054;50.966;7.094;2024-01-25T01:04:31;28.48;;;6.10;;
11988;SDS011;6054;50.966;7.094;2024-01-25T01:06:58;27.67;;;6.32;;
11988;SDS011;6054;50.966;7.094;2024-01-25T01:09:25;40.40;;;6.40;;
11988;SDS011;6054;50.966;7.094;2024-01-25T01:11:52;30.40;;;6.13;;
11988;SDS011;6054;50.966;7.094;2024-01-25T01:14:21;30.85;;;6.63;;
11988;SDS011;6054;50.966;7.094;2024-01-25T01:16:47;35.47;;;7.47;;
11988;SDS011;6054;50.966;7.094;2024-01-25T01:19:15;33.72;;;5.65;;
11988;SDS011;6054;50.966;7.094;2024-01-25T01:21:42;29.67;;;5.82;;
11988;SDS011;6054;50.966;7.094;2024-01-25T01:24:09;34.42;;;6.40;;
11988;SDS011;6054;50.966;7.094;2024-01-25T01:26:36;33.83;;;7.28;;
11988;SDS011;6054;50.966;7.094;2024-01-25T01:29:03;23.85;;;5.43;;
11988;SDS011;6054;50.966;7.094;2024-01-25T01:31:32;34.72;;;5.90;;
11988;SDS011;6054;50.966;7.094;2024-01-25T01:33:59;33.05;;;6.22;;
11988;SDS011;6054;50.966;7.094;2024-01-25T01:36:26;33.10;;;5.78;;
11988;SDS011;6054;50.966;7.094;2024-01-25T01:38:53;36.90;;;6.32;;
11988;SDS011;6054;50.966;7.094;2024-01-25T01:41:21;38.83;;;6.38;;
11988;SDS011;6054;50.966;7.094;2024-01-25T01:43:47;39.20;;;6.18;;
11988;SDS011;6054;50.966;7.094;2024-01-25T01:46:20;37.90;;;6.68;;
11988;SDS011;6054;50.966;7.094;2024-01-25T01:48:57;35.25;;;6.68;;
11988;SDS011;6054;50.966;7.094;2024-01-25T01:51:24;28.52;;;5.38;;
11988;SDS011;6054;50.966;7.094;2024-01-25T01:53:51;37.65;;;7.47;;
11988;SDS011;6054;50.966;7.094;2024-01-25T01:56:19;31.27;;;6.40;;
11988;SDS011;6054;50.966;7.094;2024-01-25T01:58:46;35.50;;;6.20;;
11988;SDS011;6054;50.966;7.094;2024-01-25T02:01:14;31.45;;;5.57;;
11988;SDS011;6054;50.966;7.094;2024-01-25T02:03:41;30.30;;;5.63;;
11988;SDS011;6054;50.966;7.094;2024-01-25T02:06:09;32.05;;;5.68;;
11988;SDS011;6054;50.966;7.094;2024-01-25T02:08:36;41.38;;;6.07;;
11988;SDS011;6054;50.966;7.094;2024-01-25T02:11:03;28.55;;;6.53;;
11988;SDS011;6054;50.966;7.094;2024-01-25T02:13:30;28.48;;;5.40;;
11988;SDS011;6054;50.966;7.094;2024-01-25T02:15:57;33.88;;;6.22;;
11988;SDS011;6054;50.966;7.094;2024-01-25T02:18:24;30.67;;;5.53;;
11988;SDS011;6054;50.966;7.094;2024-01-25T02:20:51;27.17;;;5.97;;
11988;SDS011;6054;50.966;7.094;2024-01-25T02:23:19;29.02;;;6.93;;
11988;SDS011;6054;50.966;7.094;2024-01-25T02:25:46;29.52;;;5.43;;
11988;SDS011;6054;50.966;7.094;2024-01-25T02:28:15;35.55;;;7.38;;
11988;SDS011;6054;50.966;7.094;2024-01-25T02:30:41;35.60;;;5.70;;
11988;SDS011;6054;50.966;7.094;2024-01-25T02:33:08;33.35;;;5.88;;
11988;SDS011;6054;50.966;7.094;2024-01-25T02:35:36;28.35;;;5.25;;
11988;SDS011;6054;50.966;7.094;2024-01-25T02:38:03;29.17;;;5.88;;
11988;SDS011;6054;50.966;7.094;2024-01-25T02:40:31;29.67;;;5.45;;
11988;SDS011;6054;50.966;7.094;2024-01-25T02:42:58;30.63;;;5.70;;
11988;SDS011;6054;50.966;7.094;2024-01-25T02:45:25;37.97;;;5.97;;
11988;SDS011;6054;50.966;7.094;2024-01-25T02:47:52;32.17;;;6.93;;
11988;SDS011;6054;50.966;7.094;2024-01-25T02:50:19;39.33;;;7.40;;
11988;SDS011;6054;50.966;7.094;2024-01-25T02:52:46;27.60;;;5.45;;
11988;SDS011;6054;50.966;7.094;2024-01-25T02:55:18;48.03;;;6.72;;
11988;SDS011;6054;50.966;7.094;2024-01-25T02:57:46;34.92;;;5.93;;
11988;SDS011;6054;50.966;7.094;2024-01-25T03:00:13;29.60;;;6.30;;
11988;SDS011;6054;50.966;7.094;2024-01-25T03:02:40;29.33;;;5.75;;
11988;SDS011;6054;50.966;7.094;2024-01-25T03:05:07;30.02;;;5.97;;
11988;SDS011;6054;50.966;7.094;2024-01-25T03:07:35;40.08;;;6.45;;
11988;SDS011;6054;50.966;7.094;2024-01-25T03:10:02;26.27;;;5.05;;
11988;SDS011;6054;50.966;7.094;2024-01-25T03:12:30;31.70;;;6.07;;
11988;SDS011;6054;50.966;7.094;2024-01-25T03:14:58;31.40;;;5.70;;
11988;SDS011;6054;50.966;7.094;2024-01-25T03:17:25;36.85;;;6.00;;
11988;SDS011;6054;50.966;7.094;2024-01-25T03:19:51;34.75;;;5.93;;
11988;SDS011;6054;50.966;7.094;2024-01-25T03:22:18;28.75;;;5.45;;
11988;SDS011;6054;50.966;7.094;2024-01-25T03:24:45;32.22;;;6.00;;
11988;SDS011;6054;50.966;7.094;2024-01-25T03:27:12;34.60;;;5.30;;
11988;SDS011;6054;50.966;7.094;2024-01-25T03:29:40;29.48;;;5.25;;
11988;SDS011;6054;50.966;7.094;2024-01-25T03:32:09;31.08;;;6.07;;
11988;SDS011;6054;50.966;7.094;2024-01-25T03:34:36;34.45;;;6.60;;
11988;SDS011;6054;50.966;7.094;2024-01-25T03:37:03;28.55;;;5.40;;
11988;SDS011;6054;50.966;7.094;2024-01-25T03:39:30;34.08;;;5.55;;
11988;SDS011;6054;50.966;7.094;2024-01-25T03:41:57;43.45;;;6.07;;
11988;SDS011;6054;50.966;7.094;2024-01-25T03:44:24;33.33;;;6.25;;
11988;SDS011;6054;50.966;7.094;2024-01-25T03:46:50;40.25;;;5.63;;
11988;SDS011;6054;50.966;7.094;2024-01-25T03:49:19;42.85;;;6.90;;
11988;SDS011;6054;50.966;7.094;2024-01-25T03:51:47;35.60;;;5.65;;
11988;SDS011;6054;50.966;7.094;2024-01-25T03:54:14;38.83;;;5.35;;
11988;SDS011;6054;50.966;7.094;2024-01-25T03:56:41;33.58;;;5.28;;
11988;SDS011;6054;50.966;7.094;2024-01-25T03:59:08;29.63;;;5.72;;
11988;SDS011;6054;50.966;7.094;2024-01-25T04:01:41;42.00;;;6.50;;
11988;SDS011;6054;50.966;7.094;2024-01-25T04:04:08;37.60;;;6.95;;
11988;SDS011;6054;50.966;7.094;2024-01-25T04:06:38;38.35;;;5.72;;
11988;SDS011;6054;50.966;7.094;2024-01-25T04:09:05;30.60;;;6.07;;
11988;SDS011;6054;50.966;7.094;2024-01-25T04:11:32;41.55;;;6.75;;
11988;SDS011;6054;50.966;7.094;2024-01-25T04:13:58;32.75;;;5.57;;
11988;SDS011;6054;50.966;7.094;2024-01-25T04:16:25;36.88;;;5.90;;
11988;SDS011;6054;50.966;7.094;2024-01-25T04:18:52;32.33;;;6.18;;
11988;SDS011;6054;50.966;7.094;2024-01-25T04:21:19;40.92;;;6.75;;
11988;SDS011;6054;50.966;7.094;2024-01-25T04:23:47;37.00;;;6.20;;
11988;SDS011;6054;50.966;7.094;2024-01-25T04:26:14;33.72;;;5.82;;
11988;SDS011;6054;50.966;7.094;2024-01-25T04:28:41;31.20;;;5.93;;
11988;SDS011;6054;50.966;7.094;2024-01-25T04:31:08;35.67;;;6.63;;
11988;SDS011;6054;50.966;7.094;2024-01-25T04:33:35;38.50;;;6.20;;
11988;SDS011;6054;50.966;7.094;2024-01-25T04:36:04;34.00;;;5.70;;
11988;SDS011;6054;50.966;7.094;2024-01-25T04:38:31;34.50;;;6.00;;
11988;SDS011;6054;50.966;7.094;2024-01-25T04:40:59;39.03;;;6.65;;
11988;SDS011;6054;50.966;7.094;2024-01-25T04:43:26;34.53;;;6.10;;
11988;SDS011;6054;50.966;7.094;2024-01-25T04:45:53;31.42;;;6.28;;
11988;SDS011;6054;50.966;7.094;2024-01-25T04:48:20;29.60;;;5.93;;
11988;SDS011;6054;50.966;7.094;2024-01-25T04:50:47;35.22;;;6.95;;
11988;SDS011;6054;50.966;7.094;2024-01-25T04:53:13;35.42;;;6.85;;
11988;SDS011;6054;50.966;7.094;2024-01-25T04:55:40;38.88;;;6.28;;
11988;SDS011;6054;50.966;7.094;2024-01-25T04:58:08;35.55;;;6.40;;
11988;SDS011;6054;50.966;7.094;2024-01-25T05:00:36;32.90;;;6.80;;
11988;SDS011;6054;50.966;7.094;2024-01-25T05:03:04;38.10;;;6.07;;
11988;SDS011;6054;50.966;7.094;2024-01-25T05:05:31;32.38;;;5.72;;
11988;SDS011;6054;50.966;7.094;2024-01-25T05:07:58;33.88;;;5.55;;
11988;SDS011;6054;50.966;7.094;2024-01-25T05:10:25;41.25;;;6.55;;
11988;SDS011;6054;50.966;7.094;2024-01-25T05:12:52;27.75;;;4.90;;
11988;SDS011;6054;50.966;7.094;2024-01-25T05:15:21;28.48;;;5.32;;
11988;SDS011;6054;50.966;7.094;2024-01-25T05:17:48;28.50;;;5.15;;
11988;SDS011;6054;50.966;7.094;2024-01-25T05:20:15;26.33;;;4.78;;
11988;SDS011;6054;50.966;7.094;2024-01-25T05:22:42;17.77;;;4.55;;
11988;SDS011;6054;50.966;7.094;2024-01-25T05:25:11;27.52;;;4.82;;
11988;SDS011;6054;50.966;7.094;2024-01-25T05:27:38;28.50;;;4.95;;
11988;SDS011;6054;50.966;7.094;2024-01-25T05:30:06;22.92;;;4.30;;
11988;SDS011;6054;50.966;7.094;2024-01-25T05:32:36;23.55;;;4.30;;
11988;SDS011;6054;50.966;7.094;2024-01-25T05:35:03;22.67;;;3.83;;
11988;SDS011;6054;50.966;7.094;2024-01-25T05:37:31;30.02;;;4.75;;
11988;SDS011;6054;50.966;7.094;2024-01-25T05:39:57;20.63;;;3.95;;
11988;SDS011;6054;50.966;7.094;2024-01-25T05:42:24;21.23;;;4.63;;
11988;SDS011;6054;50.966;7.094;2024-01-25T05:44:51;23.38;;;5.22;;
11988;SDS011;6054;50.966;7.094;2024-01-25T05:47:18;18.95;;;4.30;;
11988;SDS011;6054;50.966;7.094;2024-01-25T05:49:47;27.90;;;4.80;;
11988;SDS011;6054;50.966;7.094;2024-01-25T05:52:13;24.05;;;4.20;;
11988;SDS011;6054;50.966;7.094;2024-01-25T05:54:41;20.65;;;5.45;;
11988;SDS011;6054;50.966;7.094;2024-01-25T05:57:08;25.67;;;5.10;;
11988;SDS011;6054;50.966;7.094;2024-01-25T05:59:35;29.48;;;5.65;;
11988;SDS011;6054;50.966;7.094;2024-01-25T06:02:03;26.77;;;5.05;;
11988;SDS011;6054;50.966;7.094;2024-01-25T06:04:30;28.13;;;5.47;;
11988;SDS011;6054;50.966;7.094;2024-01-25T06:06:59;32.08;;;5.68;;
11988;SDS011;6054;50.966;7.094;2024-01-25T06:09:25;18.10;;;4.93;;
11988;SDS011;6054;50.966;7.094;2024-01-25T06:11:53;23.85;;;4.78;;
11988;SDS011;6054;50.966;7.094;2024-01-25T06:14:20;18.83;;;4.15;;
11988;SDS011;6054;50.966;7.094;2024-01-25T06:16:46;23.60;;;5.38;;
11988;SDS011;6054;50.966;7.094;2024-01-25T06:19:13;20.88;;;5.07;;
11988;SDS011;6054;50.966;7.094;2024-01-25T06:21:40;20.35;;;5.28;;
11988;SDS011;6054;50.966;7.094;2024-01-25T06:24:10;21.05;;;4.18;;
11988;SDS011;6054;50.966;7.094;2024-01-25T06:26:37;19.02;;;4.15;;
11988;SDS011;6054;50.966;7.094;2024-01-25T06:29:04;19.95;;;4.95;;
11988;SDS011;6054;50.966;7.094;2024-01-25T06:31:32;28.58;;;4.75;;
11988;SDS011;6054;50.966;7.094;2024-01-25T06:34:06;22.40;;;5.20;;
11988;SDS011;6054;50.966;7.094;2024-01-25T06:36:32;33.00;;;5.43;;
11988;SDS011;6054;50.966;7.094;2024-01-25T06:38:59;20.05;;;5.80;;
11988;SDS011;6054;50.966;7.094;2024-01-25T06:41:27;16.75;;;5.15;;
11988;SDS011;6054;50.966;7.094;2024-01-25T06:43:54;20.85;;;4.07;;
11988;SDS011;6054;50.966;7.094;2024-01-25T06:46:21;34.47;;;5.80;;
11988;SDS011;6054;50.966;7.094;2024-01-25T06:48:50;27.27;;;4.75;;
11988;SDS011;6054;50.966;7.094;2024-01-25T06:51:17;23.65;;;5.28;;
11988;SDS011;6054;50.966;7.094;2024-01-25T06:53:44;26.98;;;5.30;;
11988;SDS011;6054;50.966;7.094;2024-01-25T06:56:11;21.80;;;5.10;;
11988;SDS011;6054;50.966;7.094;2024-01-25T06:58:40;21.17;;;5.00;;
11988;SDS011;6054;50.966;7.094;2024-01-25T07:01:06;25.13;;;5.32;;
11988;SDS011;6054;50.966;7.094;2024-01-25T07:03:33;19.73;;;4.53;;
11988;SDS011;6054;50.966;7.094;2024-01-25T07:06:00;30.95;;;6.32;;
11988;SDS011;6054;50.966;7.094;2024-01-25T07:08:28;23.58;;;5.22;;
11988;SDS011;6054;50.966;7.094;2024-01-25T07:10:55;24.35;;;5.70;;
11988;SDS011;6054;50.966;7.094;2024-01-25T07:13:24;27.50;;;5.63;;
11988;SDS011;6054;50.966;7.094;2024-01-25T07:15:53;18.98;;;4.80;;
11988;SDS011;6054;50.966;7.094;2024-01-25T07:18:20;21.10;;;4.90;;
11988;SDS011;6054;50.966;7.094;2024-01-25T07:20:47;26.00;;;5.47;;
11988;SDS011;6054;50.966;7.094;2024-01-25T07:23:15;23.50;;;5.07;;
11988;SDS011;6054;50.966;7.094;2024-01-25T07:25:42;18.75;;;4.57;;
11988;SDS011;6054;50.966;7.094;2024-01-25T07:28:09;22.15;;;4.47;;
11988;SDS011;6054;50.966;7.094;2024-01-25T07:30:36;22.77;;;4.97;;
11988;SDS011;6054;50.966;7.094;2024-01-25T07:33:05;22.35;;;5.18;;
11988;SDS011;6054;50.966;7.094;2024-01-25T07:35:33;23.05;;;5.93;;
11988;SDS011;6054;50.966;7.094;2024-01-25T07:38:00;28.88;;;6.45;;
11988;SDS011;6054;50.966;7.094;2024-01-25T07:40:27;25.40;;;5.45;;
11988;SDS011;6054;50.966;7.094;2024-01-25T07:42:54;28.90;;;6.25;;
11988;SDS011;6054;50.966;7.094;2024-01-25T07:45:21;25.45;;;6.30;;
11988;SDS011;6054;50.966;7.094;2024-01-25T07:47:48;24.77;;;5.80;;
11988;SDS011;6054;50.966;7.094;2024-01-25T07:50:16;22.08;;;6.38;;
11988;SDS011;6054;50.966;7.094;2024-01-25T07:52:43;26.20;;;6.32;;
11988;SDS011;6054;50.966;7.094;2024-01-25T07:55:10;24.13;;;5.72;;
11988;SDS011;6054;50.966;7.094;2024-01-25T07:57:37;17.83;;;5.72;;
11988;SDS011;6054;50.966;7.094;2024-01-25T08:00:04;23.60;;;5.90;;
11988;SDS011;6054;50.966;7.094;2024-01-25T08:02:33;19.50;;;5.50;;
11988;SDS011;6054;50.966;7.094;2024-01-25T08:04:59;21.17;;;5.70;;
11988;SDS011;6054;50.966;7.094;2024-01-25T08:07:29;26.83;;;5.85;;
11988;SDS011;6054;50.966;7.094;2024-01-25T08:09:58;30.05;;;6.05;;
11988;SDS011;6054;50.966;7.094;2024-01-25T08:12:24;24.77;;;6.53;;
11988;SDS011;6054;50.966;7.094;2024-01-25T08:14:52;20.52;;;5.85;;
11988;SDS011;6054;50.966;7.094;2024-01-25T08:17:19;20.10;;;5.68;;
11988;SDS011;6054;50.966;7.094;2024-01-25T08:19:46;23.15;;;6.88;;
11988;SDS011;6054;50.966;7.094;2024-01-25T08:22:13;21.10;;;5.45;;
11988;SDS011;6054;50.966;7.094;2024-01-25T08:24:41;26.90;;;6.93;;
11988;SDS011;6054;50.966;7.094;2024-01-25T08:27:08;31.38;;;6.80;;
11988;SDS011;6054;50.966;7.094;2024-01-25T08:29:35;26.98;;;7.20;;
11988;SDS011;6054;50.966;7.094;2024-01-25T08:32:04;19.35;;;6.05;;
11988;SDS011;6054;50.966;7.094;2024-01-25T08:34:31;24.77;;;6.32;;
11988;SDS011;6054;50.966;7.094;2024-01-25T08:36:58;30.73;;;7.05;;
11988;SDS011;6054;50.966;7.094;2024-01-25T08:39:24;19.80;;;6.47;;
11988;SDS011;6054;50.966;7.094;2024-01-25T08:41:53;25.65;;;7.40;;
11988;SDS011;6054;50.966;7.094;2024-01-25T08:44:21;23.67;;;5.60;;
11988;SDS011;6054;50.966;7.094;2024-01-25T08:46:48;23.30;;;6.30;;
11988;SDS011;6054;50.966;7.094;2024-01-25T08:49:16;36.38;;;6.70;;
11988;SDS011;6054;50.966;7.094;2024-01-25T08:51:43;26.45;;;6.50;;
11988;SDS011;6054;50.966;7.094;2024-01-25T08:54:10;22.02;;;6.85;;
11988;SDS011;6054;50.966;7.094;2024-01-25T08:56:37;27.92;;;6.55;;
11988;SDS011;6054;50.966;7.094;2024-01-25T08:59:05;31.80;;;6.50;;
11988;SDS011;6054;50.966;7.094;2024-01-25T09:01:32;23.25;;;6.25;;
11988;SDS011;6054;50.966;7.094;2024-01-25T09:03:59;21.52;;;6.00;;
11988;SDS011;6054;50.966;7.094;2024-01-25T09:06:27;25.48;;;5.80;;
11988;SDS011;6054;50.966;7.094;2024-01-25T09:08:55;25.95;;;6.57;;
11988;SDS011;6054;50.966;7.094;2024-01-25T09:11:22;39.17;;;6.53;;
11988;SDS011;6054;50.966;7.094;2024-01-25T09:13:49;31.83;;;6.18;;
11988;SDS011;6054;50.966;7.094;2024-01-25T09:16:18;35.47;;;7.07;;
11988;SDS011;6054;50.966;7.094;2024-01-25T09:18:45;35.60;;;6.90;;
11988;SDS011;6054;50.966;7.094;2024-01-25T09:21:12;30.42;;;6.70;;
11988;SDS011;6054;50.966;7.094;2024-01-25T09:23:40;28.23;;;6.60;;
11988;SDS011;6054;50.966;7.094;2024-01-25T09:26:07;30.95;;;7.72;;
11988;SDS011;6054;50.966;7.094;2024-01-25T09:28:38;28.23;;;6.45;;
11988;SDS011;6054;50.966;7.094;2024-01-25T09:31:05;32.25;;;7.43;;
11988;SDS011;6054;50.966;7.094;2024-01-25T09:33:33;30.00;;;7.30;;
11988;SDS011;6054;50.966;7.094;2024-01-25T09:36:00;24.70;;;6.70;;
11988;SDS011;6054;50.966;7.094;2024-01-25T09:38:27;41.90;;;8.15;;
11988;SDS011;6054;50.966;7.094;2024-01-25T09:40:53;26.95;;;6.38;;
11988;SDS011;6054;50.966;7.094;2024-01-25T09:43:21;31.48;;;6.30;;
11988;SDS011;6054;50.966;7.094;2024-01-25T09:45:48;34.38;;;6.93;;
11988;SDS011;6054;50.966;7.094;2024-01-25T09:48:19;28.58;;;6.75;;
11988;SDS011;6054;50.966;7.094;2024-01-25T09:50:48;37.90;;;8.25;;
11988;SDS011;6054;50.966;7.094;2024-01-25T09:53:17;38.00;;;8.45;;
11988;SDS011;6054;50.966;7.094;2024-01-25T09:55:48;34.83;;;8.43;;
11988;SDS011;6054;50.966;7.094;2024-01-25T09:58:23;47.05;;;8.57;;
11988;SDS011;6054;50.966;7.094;2024-01-25T10:00:53;30.90;;;8.05;;
11988;SDS011;6054;50.966;7.094;2024-01-25T10:03:20;35.08;;;8.75;;
11988;SDS011;6054;50.966;7.094;2024-01-25T10:05:48;35.70;;;8.52;;
11988;SDS011;6054;50.966;7.094;2024-01-25T10:08:15;40.72;;;8.60;;
11988;SDS011;6054;50.966;7.094;2024-01-25T10:10:44;30.02;;;8.23;;
11988;SDS011;6054;50.966;7.094;2024-01-25T10:13:12;40.25;;;9.18;;
11988;SDS011;6054;50.966;7.094;2024-01-25T10:15:39;40.67;;;8.77;;
11988;SDS011;6054;50.966;7.094;2024-01-25T10:18:09;37.13;;;9.60;;
11988;SDS011;6054;50.966;7.094;2024-01-25T10:20:38;38.05;;;9.90;;
11988;SDS011;6054;50.966;7.094;2024-01-25T10:23:07;36.50;;;8.90;;
11988;SDS011;6054;50.966;7.094;2024-01-25T10:25:35;34.00;;;8.93;;
11988;SDS011;6054;50.966;7.094;2024-01-25T10:28:02;33.13;;;8.73;;
11988;SDS011;6054;50.966;7.094;2024-01-25T10:30:30;33.80;;;9.55;;
11988;SDS011;6054;50.966;7.094;2024-01-25T10:32:59;48.03;;;9.35;;
11988;SDS011;6054;50.966;7.094;2024-01-25T10:35:26;35.13;;;9.93;;
11988;SDS011;6054;50.966;7.094;2024-01-25T10:37:54;43.45;;;10.07;;
11988;SDS011;6054;50.966;7.094;2024-01-25T10:40:22;37.63;;;9.68;;
11988;SDS011;6054;50.966;7.094;2024-01-25T10:42:50;30.55;;;8.57;;
11988;SDS011;6054;50.966;7.094;2024-01-25T10:45:17;43.38;;;9.52;;
11988;SDS011;6054;50.966;7.094;2024-01-25T10:50:19;41.00;;;11.57;;
11988;SDS011;6054;50.966;7.094;2024-01-25T10:52:47;31.55;;;8.52;;
11988;SDS011;6054;50.966;7.094;2024-01-25T10:55:14;35.00;;;9.48;;
11988;SDS011;6054;50.966;7.094;2024-01-25T10:57:44;31.65;;;8.82;;
11988;SDS011;6054;50.966;7.094;2024-01-25T11:00:12;30.75;;;8.20;;
11988;SDS011;6054;50.966;7.094;2024-01-25T11:02:41;33.42;;;8.55;;
11988;SDS011;6054;50.966;7.094;2024-01-25T11:05:08;32.78;;;8.82;;
11988;SDS011;6054;50.966;7.094;2024-01-25T11:07:41;21.88;;;7.88;;
11988;SDS011;6054;50.966;7.094;2024-01-25T11:10:11;41.28;;;10.32;;
11988;SDS011;6054;50.966;7.094;2024-01-25T11:12:55;33.22;;;8.60;;
11988;SDS011;6054;50.966;7.094;2024-01-25T11:15:23;35.08;;;8.38;;
11988;SDS011;6054;50.966;7.094;2024-01-25T11:17:55;35.63;;;8.35;;
11988;SDS011;6054;50.966;7.094;2024-01-25T11:20:24;32.00;;;7.57;;
11988;SDS011;6054;50.966;7.094;2024-01-25T11:22:55;27.70;;;8.07;;
11988;SDS011;6054;50.966;7.094;2024-01-25T11:25:24;31.77;;;7.63;;
11988;SDS011;6054;50.966;7.094;2024-01-25T11:27:56;31.95;;;8.63;;
11988;SDS011;6054;50.966;7.094;2024-01-25T11:30:23;34.63;;;8.18;;
11988;SDS011;6054;50.966;7.094;2024-01-25T11:32:52;29.95;;;7.95;;
11988;SDS011;6054;50.966;7.094;2024-01-25T11:35:19;34.30;;;9.02;;
11988;SDS011;6054;50.966;7.094;2024-01-25T11:37:47;31.92;;;7.85;;
11988;SDS011;6054;50.966;7.094;2024-01-25T11:40:15;35.15;;;8.50;;
11988;SDS011;6054;50.966;7.094;2024-01-25T11:42:42;27.27;;;7.38;;
11988;SDS011;6054;50.966;7.094;2024-01-25T11:45:11;32.08;;;7.45;;
11988;SDS011;6054;50.966;7.094;2024-01-25T11:47:39;27.88;;;7.05;;
11988;SDS011;6054;50.966;7.094;2024-01-25T11:50:07;33.53;;;7.43;;
11988;SDS011;6054;50.966;7.094;2024-01-25T11:52:35;32.20;;;7.78;;
11988;SDS011;6054;50.966;7.094;2024-01-25T11:55:02;33.65;;;7.47;;
11988;SDS011;6054;50.966;7.094;2024-01-25T11:57:30;34.63;;;7.60;;
11988;SDS011;6054;50.966;7.094;2024-01-25T11:59:58;35.30;;;7.22;;
11988;SDS011;6054;50.966;7.094;2024-01-25T12:02:27;30.92;;;7.30;;
11988;SDS011;6054;50.966;7.094;2024-01-25T12:04:56;25.90;;;6.43;;
11988;SDS011;6054;50.966;7.094;2024-01-25T12:07:23;24.98;;;6.10;;
11988;SDS011;6054;50.966;7.094;2024-01-25T12:09:58;28.77;;;6.10;;
11988;SDS011;6054;50.966;7.094;2024-01-25T12:12:25;29.92;;;6.80;;
11988;SDS011;6054;50.966;7.094;2024-01-25T12:14:57;25.33;;;6.20;;
11988;SDS011;6054;50.966;7.094;2024-01-25T12:17:26;29.17;;;6.70;;
11988;SDS011;6054;50.966;7.094;2024-01-25T12:19:55;27.02;;;6.78;;
11988;SDS011;6054;50.966;7.094;2024-01-25T12:22:22;24.63;;;5.80;;
11988;SDS011;6054;50.966;7.094;2024-01-25T12:24:50;26.88;;;5.85;;
11988;SDS011;6054;50.966;7.094;2024-01-25T12:27:20;25.00;;;6.82;;
11988;SDS011;6054;50.966;7.094;2024-01-25T12:29:48;26.17;;;5.65;;
11988;SDS011;6054;50.966;7.094;2024-01-25T12:32:15;25.27;;;6.72;;
11988;SDS011;6054;50.966;7.094;2024-01-25T12:34:44;27.00;;;6.63;;
11988;SDS011;6054;50.966;7.094;2024-01-25T12:37:19;28.42;;;6.35;;
11988;SDS011;6054;50.966;7.094;2024-01-25T12:39:45;30.23;;;5.82;;
11988;SDS011;6054;50.966;7.094;2024-01-25T12:42:12;27.85;;;6.18;;
11988;SDS011;6054;50.966;7.094;2024-01-25T12:44:39;28.50;;;6.07;;
11988;SDS011;6054;50.966;7.094;2024-01-25T12:47:06;28.65;;;6.70;;
11988;SDS011;6054;50.966;7.094;2024-01-25T12:49:33;28.15;;;5.85;;
11988;SDS011;6054;50.966;7.094;2024-01-25T12:52:03;25.75;;;5.75;;
11988;SDS011;6054;50.966;7.094;2024-01-25T12:54:30;23.67;;;5.15;;
11988;SDS011;6054;50.966;7.094;2024-01-25T12:56:57;24.27;;;4.32;;
11988;SDS011;6054;50.966;7.094;2024-01-25T12:59:24;20.90;;;5.43;;
11988;SDS011;6054;50.966;7.094;2024-01-25T13:01:51;19.45;;;4.47;;
11988;SDS011;6054;50.966;7.094;2024-01-25T13:04:19;21.73;;;5.18;;
11988;SDS011;6054;50.966;7.094;2024-01-25T13:06:47;18.55;;;5.65;;
11988;SDS011;6054;50.966;7.094;2024-01-25T13:09:16;23.85;;;5.03;;
11988;SDS011;6054;50.966;7.094;2024-01-25T13:11:43;20.73;;;4.68;;
11988;SDS011;6054;50.966;7.094;2024-01-25T13:14:11;27.23;;;5.85;;
11988;SDS011;6054;50.966;7.094;2024-01-25T13:16:38;23.17;;;4.60;;
11988;SDS011;6054;50.966;7.094;2024-01-25T13:19:05;25.27;;;4.75;;
11988;SDS011;6054;50.966;7.094;2024-01-25T13:21:32;22.33;;;4.82;;
11988;SDS011;6054;50.966;7.094;2024-01-25T13:23:59;21.55;;;4.35;;
11988;SDS011;6054;50.966;7.094;2024-01-25T13:26:27;23.15;;;5.07;;
11988;SDS011;6054;50.966;7.094;2024-01-25T13:28:54;23.73;;;4.95;;
11988;SDS011;6054;50.966;7.094;2024-01-25T13:31:21;18.30;;;4.80;;
11988;SDS011;6054;50.966;7.094;2024-01-25T13:33:48;29.08;;;5.80;;
11988;SDS011;6054;50.966;7.094;2024-01-25T13:36:16;22.27;;;5.03;;
11988;SDS011;6054;50.966;7.094;2024-01-25T13:38:43;24.73;;;5.88;;
11988;SDS011;6054;50.966;7.094;2024-01-25T13:41:09;21.35;;;4.75;;
11988;SDS011;6054;50.966;7.094;2024-01-25T13:43:38;25.02;;;4.93;;
11988;SDS011;6054;50.966;7.094;2024-01-25T13:46:06;22.13;;;4.97;;
11988;SDS011;6054;50.966;7.094;2024-01-25T13:48:33;20.23;;;4.93;;
11988;SDS011;6054;50.966;7.094;2024-01-25T13:51:00;28.50;;;5.53;;
11988;SDS011;6054;50.966;7.094;2024-01-25T13:53:27;20.55;;;4.57;;
11988;SDS011;6054;50.966;7.094;2024-01-25T13:55:54;23.30;;;5.22;;
11988;SDS011;6054;50.966;7.094;2024-01-25T13:58:21;19.52;;;4.22;;
11988;SDS011;6054;50.966;7.094;2024-01-25T14:00:50;21.08;;;5.03;;
11988;SDS011;6054;50.966;7.094;2024-01-25T14:03:16;18.33;;;4.95;;
11988;SDS011;6054;50.966;7.094;2024-01-25T14:05:43;21.02;;;5.03;;
11988;SDS011;6054;50.966;7.094;2024-01-25T14:08:10;23.33;;;5.10;;
11988;SDS011;6054;50.966;7.094;2024-01-25T14:10:42;16.83;;;4.38;;
11988;SDS011;6054;50.966;7.094;2024-01-25T14:13:09;22.17;;;5.03;;
11988;SDS011;6054;50.966;7.094;2024-01-25T14:15:37;22.38;;;4.15;;
11988;SDS011;6054;50.966;7.094;2024-01-25T14:18:05;27.77;;;5.13;;
11988;SDS011;6054;50.966;7.094;2024-01-25T14:20:32;23.67;;;4.90;;
11988;SDS011;6054;50.966;7.094;2024-01-25T14:23:02;21.23;;;4.95;;
11988;SDS011;6054;50.966;7.094;2024-01-25T14:25:30;24.30;;;4.63;;
11988;SDS011;6054;50.966;7.094;2024-01-25T14:27:57;17.90;;;4.40;;
11988;SDS011;6054;50.966;7.094;2024-01-25T14:30:24;23.58;;;4.50;;
11988;SDS011;6054;50.966;7.094;2024-01-25T14:32:51;19.05;;;4.47;;
11988;SDS011;6054;50.966;7.094;2024-01-25T14:35:20;21.02;;;4.75;;
11988;SDS011;6054;50.966;7.094;2024-01-25T14:37:53;20.52;;;4.35;;
11988;SDS011;6054;50.966;7.094;2024-01-25T14:40:20;21.25;;;4.25;;
11988;SDS011;6054;50.966;7.094;2024-01-25T14:42:46;17.90;;;4.22;;
11988;SDS011;6054;50.966;7.094;2024-01-25T14:45:13;21.58;;;4.75;;
11988;SDS011;6054;50.966;7.094;2024-01-25T14:47:40;19.35;;;4.80;;
11988;SDS011;6054;50.966;7.094;2024-01-25T14:50:07;25.70;;;5.43;;
11988;SDS011;6054;50.966;7.094;2024-01-25T14:52:35;20.08;;;4.30;;